sensor_id;sensor_type;location;lat;lon;timestamp;pressure;altitude;pressure_sealevel;temperature;humidity
55466;BME280;41329;41.594;23.810;2024-02-26T00:01:23;94944.25;;;9.00;86.23
55466;BME280;41329;41.594;23.810;2024-02-26T00:03:48;94937.25;;;9.06;85.98
55466;BME280;41329;41.594;23.810;2024-02-26T00:06:14;94947.81;;;9.27;85.87
55466;BME280;41329;41.594;23.810;2024-02-26T00:08:39;94927.38;;;9.31;85.39
55466;BME280;41329;41.594;23.810;2024-02-26T00:11:05;94931.97;;;9.50;85.80
55466;BME280;41329;41.594;23.810;2024-02-26T00:13:30;94916.16;;;9.47;86.50
55466;BME280;41329;41.594;23.810;2024-02-26T00:15:55;94933.09;;;9.75;87.34
55466;BME280;41329;41.594;23.810;2024-02-26T00:18:21;94921.78;;;9.87;87.28
55466;BME280;41329;41.594;23.810;2024-02-26T00:20:46;94921.16;;;10.04;87.40
55466;BME280;41329;41.594;23.810;2024-02-26T00:23:15;94925.25;;;10.13;87.38
55466;BME280;41329;41.594;23.810;2024-02-26T00:25:40;94927.41;;;10.27;87.00
55466;BME280;41329;41.594;23.810;2024-02-26T00:28:08;94921.56;;;10.35;86.82
55466;BME280;41329;41.594;23.810;2024-02-26T00:30:33;94845.75;;;10.00;86.03
55466;BME280;41329;41.594;23.810;2024-02-26T00:32:58;94910.63;;;10.49;85.79
55466;BME280;41329;41.594;23.810;2024-02-26T00:35:24;94920.22;;;10.59;83.97
55466;BME280;41329;41.594;23.810;2024-02-26T00:37:49;94902.44;;;10.63;83.02
55466;BME280;41329;41.594;23.810;2024-02-26T00:40:15;94906.03;;;10.67;82.59
55466;BME280;41329;41.594;23.810;2024-02-26T00:42:41;94883.75;;;10.50;81.49
55466;BME280;41329;41.594;23.810;2024-02-26T00:45:11;94909.44;;;10.50;80.48
55466;BME280;41329;41.594;23.810;2024-02-26T00:47:37;94901.91;;;10.47;80.01
55466;BME280;41329;41.594;23.810;2024-02-26T00:50:02;94901.13;;;10.47;79.76
55466;BME280;41329;41.594;23.810;2024-02-26T00:52:28;94894.72;;;10.39;79.71
55466;BME280;41329;41.594;23.810;2024-02-26T00:54:53;94886.53;;;10.10;79.48
55466;BME280;41329;41.594;23.810;2024-02-26T00:57:18;94879.31;;;10.02;79.61
55466;BME280;41329;41.594;23.810;2024-02-26T00:59:44;94888.88;;;10.08;79.55
55466;BME280;41329;41.594;23.810;2024-02-26T01:02:09;94859.47;;;9.93;79.78
55466;BME280;41329;41.594;23.810;2024-02-26T01:04:35;94884.91;;;10.05;79.96
55466;BME280;41329;41.594;23.810;2024-02-26T01:07:00;94853.94;;;9.89;80.10
55466;BME280;41329;41.594;23.810;2024-02-26T01:09:25;94863.91;;;10.01;80.22
55466;BME280;41329;41.594;23.810;2024-02-26T01:11:51;94863.91;;;10.01;80.17
55466;BME280;41329;41.594;23.810;2024-02-26T01:14:16;94851.97;;;9.93;80.37
55466;BME280;41329;41.594;23.810;2024-02-26T01:16:41;94834.59;;;9.89;80.27
55466;BME280;41329;41.594;23.810;2024-02-26T01:19:07;94848.88;;;9.98;80.67
55466;BME280;41329;41.594;23.810;2024-02-26T01:21:32;94847.72;;;10.03;80.59
55466;BME280;41329;41.594;23.810;2024-02-26T01:23:58;94829.09;;;9.93;80.56
55466;BME280;41329;41.594;23.810;2024-02-26T01:26:23;94822.38;;;9.94;80.62
55466;BME280;41329;41.594;23.810;2024-02-26T01:28:48;94841.09;;;10.07;80.53
55466;BME280;41329;41.594;23.810;2024-02-26T01:31:14;94831.53;;;10.01;80.55
55466;BME280;41329;41.594;23.810;2024-02-26T01:33:39;94813.97;;;9.80;80.84
55466;BME280;41329;41.594;23.810;2024-02-26T01:36:05;94833.78;;;9.89;81.04
55466;BME280;41329;41.594;23.810;2024-02-26T01:38:31;94829.75;;;9.83;80.71
55466;BME280;41329;41.594;23.810;2024-02-26T01:40:56;94837.91;;;9.69;81.26
55466;BME280;41329;41.594;23.810;2024-02-26T01:43:22;94845.81;;;9.70;81.42
55466;BME280;41329;41.594;23.810;2024-02-26T01:45:47;94832.41;;;9.72;81.35
55466;BME280;41329;41.594;23.810;2024-02-26T01:48:12;94837.31;;;9.53;81.66
55466;BME280;41329;41.594;23.810;2024-02-26T01:50:38;94853.44;;;9.47;82.22
55466;BME280;41329;41.594;23.810;2024-02-26T01:53:06;94857.34;;;9.46;82.59
55466;BME280;41329;41.594;23.810;2024-02-26T01:55:33;94839.91;;;9.39;82.36
55466;BME280;41329;41.594;23.810;2024-02-26T01:57:59;94865.22;;;9.44;82.96
55466;BME280;41329;41.594;23.810;2024-02-26T02:00:25;94830.88;;;9.42;82.96
55466;BME280;41329;41.594;23.810;2024-02-26T02:02:51;94853.16;;;9.59;82.90
55466;BME280;41329;41.594;23.810;2024-02-26T02:05:19;94825.13;;;9.54;82.88
55466;BME280;41329;41.594;23.810;2024-02-26T02:07:45;94837.50;;;9.67;82.66
55466;BME280;41329;41.594;23.810;2024-02-26T02:10:13;94844.16;;;9.66;82.48
55466;BME280;41329;41.594;23.810;2024-02-26T02:12:40;94844.44;;;9.54;82.48
55466;BME280;41329;41.594;23.810;2024-02-26T02:15:06;94836.03;;;9.43;82.72
55466;BME280;41329;41.594;23.810;2024-02-26T02:17:32;94794.06;;;9.31;83.14
55466;BME280;41329;41.594;23.810;2024-02-26T02:19:57;94812.94;;;9.62;82.91
55466;BME280;41329;41.594;23.810;2024-02-26T02:22:23;94812.63;;;9.67;82.70
55466;BME280;41329;41.594;23.810;2024-02-26T02:24:49;94819.00;;;9.71;82.59
55466;BME280;41329;41.594;23.810;2024-02-26T02:27:15;94819.00;;;9.71;82.50
55466;BME280;41329;41.594;23.810;2024-02-26T02:29:40;94820.22;;;9.77;82.27
55466;BME280;41329;41.594;23.810;2024-02-26T02:32:06;94814.72;;;9.80;81.95
55466;BME280;41329;41.594;23.810;2024-02-26T02:34:32;94813.16;;;9.79;81.47
55466;BME280;41329;41.594;23.810;2024-02-26T02:36:59;94816.75;;;9.83;81.38
55466;BME280;41329;41.594;23.810;2024-02-26T02:39:24;94800.06;;;9.73;81.50
55466;BME280;41329;41.594;23.810;2024-02-26T02:41:50;94800.88;;;9.77;81.41
55466;BME280;41329;41.594;23.810;2024-02-26T02:44:15;94828.66;;;9.91;81.25
55466;BME280;41329;41.594;23.810;2024-02-26T02:46:41;94802.84;;;9.76;81.20
55466;BME280;41329;41.594;23.810;2024-02-26T02:49:10;94827.50;;;9.92;81.39
55466;BME280;41329;41.594;23.810;2024-02-26T02:51:39;94831.03;;;9.92;81.25
55466;BME280;41329;41.594;23.810;2024-02-26T02:54:05;94823.56;;;9.93;81.04
55466;BME280;41329;41.594;23.810;2024-02-26T02:56:30;94831.47;;;9.94;81.03
55466;BME280;41329;41.594;23.810;2024-02-26T02:58:55;94819.22;;;9.92;80.48
55466;BME280;41329;41.594;23.810;2024-02-26T03:01:21;94817.59;;;9.91;80.26
55466;BME280;41329;41.594;23.810;2024-02-26T03:03:46;94812.47;;;9.89;80.35
55466;BME280;41329;41.594;23.810;2024-02-26T03:06:11;94787.50;;;9.79;80.35
55466;BME280;41329;41.594;23.810;2024-02-26T03:08:37;94783.91;;;9.75;80.50
55466;BME280;41329;41.594;23.810;2024-02-26T03:11:05;94791.88;;;9.83;80.48
55466;BME280;41329;41.594;23.810;2024-02-26T03:13:30;94785.97;;;9.85;80.47
55466;BME280;41329;41.594;23.810;2024-02-26T03:15:55;94792.69;;;9.84;80.70
55466;BME280;41329;41.594;23.810;2024-02-26T03:18:21;94778.81;;;9.80;81.16
55466;BME280;41329;41.594;23.810;2024-02-26T03:20:46;94788.00;;;9.91;81.05
55466;BME280;41329;41.594;23.810;2024-02-26T03:23:12;94787.63;;;9.89;81.21
55466;BME280;41329;41.594;23.810;2024-02-26T03:25:44;94776.41;;;9.75;81.60
55466;BME280;41329;41.594;23.810;2024-02-26T03:28:11;94782.09;;;9.89;81.84
55466;BME280;41329;41.594;23.810;2024-02-26T03:30:37;94790.84;;;9.98;81.78
55466;BME280;41329;41.594;23.810;2024-02-26T03:33:03;94788.91;;;10.02;81.57
55466;BME280;41329;41.594;23.810;2024-02-26T03:35:28;94791.72;;;10.06;81.48
55466;BME280;41329;41.594;23.810;2024-02-26T03:37:54;94790.19;;;10.08;81.29
55466;BME280;41329;41.594;23.810;2024-02-26T03:40:19;94785.03;;;10.07;81.20
55466;BME280;41329;41.594;23.810;2024-02-26T03:42:45;94779.50;;;10.07;80.90
55466;BME280;41329;41.594;23.810;2024-02-26T03:45:11;94762.41;;;9.98;80.86
55466;BME280;41329;41.594;23.810;2024-02-26T03:47:38;94774.78;;;10.11;80.81
55466;BME280;41329;41.594;23.810;2024-02-26T03:50:06;94782.34;;;10.14;80.42
55466;BME280;41329;41.594;23.810;2024-02-26T03:52:32;94747.03;;;10.00;79.84
55466;BME280;41329;41.594;23.810;2024-02-26T03:54:57;94770.06;;;10.11;79.59
55466;BME280;41329;41.594;23.810;2024-02-26T03:57:22;94778.72;;;10.06;79.40
55466;BME280;41329;41.594;23.810;2024-02-26T03:59:48;94780.69;;;10.06;79.22
55466;BME280;41329;41.594;23.810;2024-02-26T04:02:13;94776.66;;;10.00;79.24
55466;BME280;41329;41.594;23.810;2024-02-26T04:04:39;94780.38;;;9.78;79.04
55466;BME280;41329;41.594;23.810;2024-02-26T04:07:04;94781.25;;;9.49;80.07
55466;BME280;41329;41.594;23.810;2024-02-26T04:09:33;94783.47;;;9.33;80.71
55466;BME280;41329;41.594;23.810;2024-02-26T04:11:58;94783.78;;;9.28;80.41
55466;BME280;41329;41.594;23.810;2024-02-26T04:14:24;94794.94;;;9.05;81.81
55466;BME280;41329;41.594;23.810;2024-02-26T04:16:49;94756.72;;;8.78;82.23
55466;BME280;41329;41.594;23.810;2024-02-26T04:19:17;94782.38;;;8.82;82.78
55466;BME280;41329;41.594;23.810;2024-02-26T04:21:43;94783.47;;;9.03;82.33
55466;BME280;41329;41.594;23.810;2024-02-26T04:24:08;94793.78;;;9.06;82.06
55466;BME280;41329;41.594;23.810;2024-02-26T04:26:34;94758.88;;;8.91;82.36
55466;BME280;41329;41.594;23.810;2024-02-26T04:28:59;94783.13;;;9.08;82.40
55466;BME280;41329;41.594;23.810;2024-02-26T04:31:25;94784.81;;;9.16;82.35
55466;BME280;41329;41.594;23.810;2024-02-26T04:33:51;94783.69;;;9.21;82.50
55466;BME280;41329;41.594;23.810;2024-02-26T04:36:17;94786.53;;;9.28;82.49
55466;BME280;41329;41.594;23.810;2024-02-26T04:38:43;94785.38;;;9.29;82.29
55466;BME280;41329;41.594;23.810;2024-02-26T04:41:08;94777.13;;;9.32;82.19
55466;BME280;41329;41.594;23.810;2024-02-26T04:43:34;94786.59;;;9.31;81.83
55466;BME280;41329;41.594;23.810;2024-02-26T04:45:59;94790.56;;;9.34;81.61
55466;BME280;41329;41.594;23.810;2024-02-26T04:48:24;94773.50;;;9.25;81.46
55466;BME280;41329;41.594;23.810;2024-02-26T04:50:50;94775.13;;;9.29;81.19
55466;BME280;41329;41.594;23.810;2024-02-26T04:53:15;94785.38;;;9.29;81.19
55466;BME280;41329;41.594;23.810;2024-02-26T04:55:40;94770.66;;;9.18;81.07
55466;BME280;41329;41.594;23.810;2024-02-26T04:58:06;94792.84;;;9.28;80.91
55466;BME280;41329;41.594;23.810;2024-02-26T05:00:31;94792.47;;;9.30;80.69
55466;BME280;41329;41.594;23.810;2024-02-26T05:02:57;94779.34;;;9.20;80.57
55466;BME280;41329;41.594;23.810;2024-02-26T05:05:22;94779.25;;;9.13;80.86
55466;BME280;41329;41.594;23.810;2024-02-26T05:07:48;94792.44;;;9.26;81.25
55466;BME280;41329;41.594;23.810;2024-02-26T05:10:13;94773.78;;;9.16;81.40
55466;BME280;41329;41.594;23.810;2024-02-26T05:12:39;94792.09;;;9.31;81.50
55466;BME280;41329;41.594;23.810;2024-02-26T05:15:06;94786.22;;;9.33;81.72
55466;BME280;41329;41.594;23.810;2024-02-26T05:17:31;94787.31;;;9.25;81.72
55466;BME280;41329;41.594;23.810;2024-02-26T05:19:56;94783.41;;;9.29;82.25
55466;BME280;41329;41.594;23.810;2024-02-26T05:22:22;94791.41;;;9.38;82.63
55466;BME280;41329;41.594;23.810;2024-02-26T05:24:47;94783.16;;;9.41;82.26
55466;BME280;41329;41.594;23.810;2024-02-26T05:27:13;94783.53;;;9.40;81.56
55466;BME280;41329;41.594;23.810;2024-02-26T05:29:38;94772.41;;;9.33;81.54
55466;BME280;41329;41.594;23.810;2024-02-26T05:32:05;94779.88;;;9.32;81.59
55466;BME280;41329;41.594;23.810;2024-02-26T05:34:30;94744.97;;;9.14;82.12
55466;BME280;41329;41.594;23.810;2024-02-26T05:36:56;94748.09;;;9.12;82.13
55466;BME280;41329;41.594;23.810;2024-02-26T05:39:21;94773.88;;;9.23;82.43
55466;BME280;41329;41.594;23.810;2024-02-26T05:41:47;94769.66;;;9.33;82.63
55466;BME280;41329;41.594;23.810;2024-02-26T05:44:12;94774.88;;;9.41;82.41
55466;BME280;41329;41.594;23.810;2024-02-26T05:46:37;94774.88;;;9.45;82.45
55466;BME280;41329;41.594;23.810;2024-02-26T05:49:03;94779.28;;;9.49;82.47
55466;BME280;41329;41.594;23.810;2024-02-26T05:51:28;94788.28;;;9.43;82.26
55466;BME280;41329;41.594;23.810;2024-02-26T05:53:54;94754.78;;;9.08;82.40
55466;BME280;41329;41.594;23.810;2024-02-26T05:56:22;94791.53;;;9.15;82.86
55466;BME280;41329;41.594;23.810;2024-02-26T05:58:48;94783.09;;;9.05;82.21
55466;BME280;41329;41.594;23.810;2024-02-26T06:01:15;94784.91;;;8.94;82.46
55466;BME280;41329;41.594;23.810;2024-02-26T06:03:41;94800.63;;;8.90;82.96
55466;BME280;41329;41.594;23.810;2024-02-26T06:06:06;94802.50;;;8.82;83.45
55466;BME280;41329;41.594;23.810;2024-02-26T06:08:31;94806.22;;;8.93;83.39
55466;BME280;41329;41.594;23.810;2024-02-26T06:10:57;94798.00;;;9.00;83.09
55466;BME280;41329;41.594;23.810;2024-02-26T06:13:22;94809.81;;;8.97;83.19
55466;BME280;41329;41.594;23.810;2024-02-26T06:15:48;94813.28;;;8.91;83.58
55466;BME280;41329;41.594;23.810;2024-02-26T06:18:13;94817.41;;;9.04;83.75
55466;BME280;41329;41.594;23.810;2024-02-26T06:20:38;94802.53;;;9.12;83.71
55466;BME280;41329;41.594;23.810;2024-02-26T06:23:04;94799.00;;;9.15;83.73
55466;BME280;41329;41.594;23.810;2024-02-26T06:25:29;94817.34;;;9.33;83.65
55466;BME280;41329;41.594;23.810;2024-02-26T06:27:55;94816.25;;;9.38;83.50
55466;BME280;41329;41.594;23.810;2024-02-26T06:30:20;94812.41;;;9.46;83.20
55466;BME280;41329;41.594;23.810;2024-02-26T06:32:46;94812.84;;;9.51;82.95
55466;BME280;41329;41.594;23.810;2024-02-26T06:35:11;94816.50;;;9.59;82.94
55466;BME280;41329;41.594;23.810;2024-02-26T06:37:37;94787.94;;;9.48;82.79
55466;BME280;41329;41.594;23.810;2024-02-26T06:40:02;94770.09;;;9.38;82.29
55466;BME280;41329;41.594;23.810;2024-02-26T06:42:34;94819.81;;;9.75;82.68
55466;BME280;41329;41.594;23.810;2024-02-26T06:45:00;94823.44;;;9.79;82.43
55466;BME280;41329;41.594;23.810;2024-02-26T06:47:25;94823.84;;;9.84;82.16
55466;BME280;41329;41.594;23.810;2024-02-26T06:49:51;94823.53;;;9.89;82.24
55466;BME280;41329;41.594;23.810;2024-02-26T06:52:17;94806.13;;;9.85;82.21
55466;BME280;41329;41.594;23.810;2024-02-26T06:54:42;94833.50;;;10.01;82.28
55466;BME280;41329;41.594;23.810;2024-02-26T06:57:07;94817.78;;;10.05;82.31
55466;BME280;41329;41.594;23.810;2024-02-26T06:59:33;94807.06;;;10.00;82.22
55466;BME280;41329;41.594;23.810;2024-02-26T07:01:58;94809.53;;;10.08;82.44
55466;BME280;41329;41.594;23.810;2024-02-26T07:04:24;94821.84;;;10.18;82.69
55466;BME280;41329;41.594;23.810;2024-02-26T07:06:49;94823.47;;;10.22;82.80
55466;BME280;41329;41.594;23.810;2024-02-26T07:09:14;94820.00;;;10.32;82.77
55466;BME280;41329;41.594;23.810;2024-02-26T07:11:41;94822.03;;;10.39;83.06
55466;BME280;41329;41.594;23.810;2024-02-26T07:14:10;94822.88;;;10.43;82.49
55466;BME280;41329;41.594;23.810;2024-02-26T07:16:36;94820.13;;;10.46;81.97
55466;BME280;41329;41.594;23.810;2024-02-26T07:19:01;94823.72;;;10.50;82.12
55466;BME280;41329;41.594;23.810;2024-02-26T07:21:27;94822.59;;;10.58;82.32
55466;BME280;41329;41.594;23.810;2024-02-26T07:23:53;94807.13;;;10.50;82.30
55466;BME280;41329;41.594;23.810;2024-02-26T07:26:18;94819.38;;;10.49;81.82
55466;BME280;41329;41.594;23.810;2024-02-26T07:28:44;94831.66;;;10.55;81.89
55466;BME280;41329;41.594;23.810;2024-02-26T07:31:10;94837.97;;;10.52;81.79
55466;BME280;41329;41.594;23.810;2024-02-26T07:33:35;94821.78;;;10.54;81.95
55466;BME280;41329;41.594;23.810;2024-02-26T07:36:00;94819.00;;;10.54;81.93
55466;BME280;41329;41.594;23.810;2024-02-26T07:38:26;94841.88;;;10.51;82.28
55466;BME280;41329;41.594;23.810;2024-02-26T07:40:51;94831.19;;;10.50;82.52
55466;BME280;41329;41.594;23.810;2024-02-26T07:43:16;94832.09;;;10.64;82.45
55466;BME280;41329;41.594;23.810;2024-02-26T07:45:42;94824.63;;;10.68;82.62
55466;BME280;41329;41.594;23.810;2024-02-26T07:48:07;94830.66;;;10.81;82.92
55466;BME280;41329;41.594;23.810;2024-02-26T07:50:33;94825.53;;;10.83;83.15
55466;BME280;41329;41.594;23.810;2024-02-26T07:52:58;94833.88;;;10.90;83.35
55466;BME280;41329;41.594;23.810;2024-02-26T07:55:24;94828.78;;;10.99;83.65
55466;BME280;41329;41.594;23.810;2024-02-26T07:57:49;94830.81;;;11.05;83.20
55466;BME280;41329;41.594;23.810;2024-02-26T08:00:15;94826.41;;;10.97;83.31
55466;BME280;41329;41.594;23.810;2024-02-26T08:02:42;94818.91;;;10.98;82.95
55466;BME280;41329;41.594;23.810;2024-02-26T08:05:08;94832.44;;;11.10;82.93
55466;BME280;41329;41.594;23.810;2024-02-26T08:07:33;94828.09;;;11.16;82.71
55466;BME280;41329;41.594;23.810;2024-02-26T08:09:59;94828.53;;;11.21;82.55
55466;BME280;41329;41.594;23.810;2024-02-26T08:12:24;94799.59;;;11.12;82.70
55466;BME280;41329;41.594;23.810;2024-02-26T08:14:50;94826.97;;;11.27;82.93
55466;BME280;41329;41.594;23.810;2024-02-26T08:17:15;94837.28;;;11.34;82.20
55466;BME280;41329;41.594;23.810;2024-02-26T08:19:40;94832.16;;;11.36;81.80
55466;BME280;41329;41.594;23.810;2024-02-26T08:22:06;94831.41;;;11.39;81.51
55466;BME280;41329;41.594;23.810;2024-02-26T08:24:31;94819.03;;;11.22;81.62
55466;BME280;41329;41.594;23.810;2024-02-26T08:26:56;94836.19;;;11.45;81.70
55466;BME280;41329;41.594;23.810;2024-02-26T08:29:22;94828.28;;;11.51;82.05
55466;BME280;41329;41.594;23.810;2024-02-26T08:31:47;94840.97;;;11.59;81.86
55466;BME280;41329;41.594;23.810;2024-02-26T08:34:14;94839.84;;;11.60;82.07
55466;BME280;41329;41.594;23.810;2024-02-26T08:36:39;94822.38;;;11.59;81.80
55466;BME280;41329;41.594;23.810;2024-02-26T08:39:04;94832.38;;;11.78;82.00
55466;BME280;41329;41.594;23.810;2024-02-26T08:41:30;94827.25;;;11.87;82.18
55466;BME280;41329;41.594;23.810;2024-02-26T08:43:55;94822.50;;;11.91;81.63
55466;BME280;41329;41.594;23.810;2024-02-26T08:46:21;94829.66;;;12.02;80.29
55466;BME280;41329;41.594;23.810;2024-02-26T08:48:46;94829.69;;;12.06;80.08
55466;BME280;41329;41.594;23.810;2024-02-26T08:51:12;94827.69;;;12.06;79.61
55466;BME280;41329;41.594;23.810;2024-02-26T08:53:38;94832.41;;;11.99;79.44
55466;BME280;41329;41.594;23.810;2024-02-26T08:56:04;94831.22;;;11.82;80.07
55466;BME280;41329;41.594;23.810;2024-02-26T08:58:30;94823.63;;;11.69;80.58
55466;BME280;41329;41.594;23.810;2024-02-26T09:00:55;94835.56;;;11.87;80.74
55466;BME280;41329;41.594;23.810;2024-02-26T09:03:21;94831.13;;;11.68;78.73
55466;BME280;41329;41.594;23.810;2024-02-26T09:05:47;94825.97;;;11.67;79.33
55466;BME280;41329;41.594;23.810;2024-02-26T09:08:13;94825.97;;;11.67;80.36
55466;BME280;41329;41.594;23.810;2024-02-26T09:10:39;94820.09;;;11.72;80.47
55466;BME280;41329;41.594;23.810;2024-02-26T09:13:04;94829.13;;;11.62;80.79
55466;BME280;41329;41.594;23.810;2024-02-26T09:15:30;94816.03;;;11.55;80.96
55466;BME280;41329;41.594;23.810;2024-02-26T09:17:55;94818.78;;;11.59;81.18
55466;BME280;41329;41.594;23.810;2024-02-26T09:20:21;94822.09;;;11.78;80.64
55466;BME280;41329;41.594;23.810;2024-02-26T09:22:47;94809.78;;;11.76;80.32
55466;BME280;41329;41.594;23.810;2024-02-26T09:25:13;94824.09;;;12.02;79.73
55466;BME280;41329;41.594;23.810;2024-02-26T09:27:41;94827.28;;;11.94;80.00
55466;BME280;41329;41.594;23.810;2024-02-26T09:30:09;94822.94;;;12.07;80.47
55466;BME280;41329;41.594;23.810;2024-02-26T09:32:35;94823.38;;;12.23;80.54
55466;BME280;41329;41.594;23.810;2024-02-26T09:35:01;94812.69;;;12.32;80.43
55466;BME280;41329;41.594;23.810;2024-02-26T09:37:26;94815.06;;;12.55;80.57
55466;BME280;41329;41.594;23.810;2024-02-26T09:39:52;94813.06;;;12.76;80.92
55466;BME280;41329;41.594;23.810;2024-02-26T09:42:19;94813.84;;;12.94;79.92
55466;BME280;41329;41.594;23.810;2024-02-26T09:44:45;94801.56;;;12.92;78.16
55466;BME280;41329;41.594;23.810;2024-02-26T09:47:14;94804.72;;;13.11;77.22
55466;BME280;41329;41.594;23.810;2024-02-26T09:49:42;94803.06;;;13.28;75.82
55466;BME280;41329;41.594;23.810;2024-02-26T09:52:08;94804.63;;;13.39;75.30
55466;BME280;41329;41.594;23.810;2024-02-26T09:54:34;94807.78;;;13.45;73.06
55466;BME280;41329;41.594;23.810;2024-02-26T09:57:02;94789.91;;;13.46;74.21
55466;BME280;41329;41.594;23.810;2024-02-26T09:59:28;94795.75;;;13.72;73.63
55466;BME280;41329;41.594;23.810;2024-02-26T10:01:56;94788.53;;;13.89;72.54
55466;BME280;41329;41.594;23.810;2024-02-26T10:04:23;94784.88;;;14.02;70.18
55466;BME280;41329;41.594;23.810;2024-02-26T10:06:49;94771.28;;;14.11;70.17
55466;BME280;41329;41.594;23.810;2024-02-26T10:09:16;94779.91;;;14.34;70.19
55466;BME280;41329;41.594;23.810;2024-02-26T10:11:41;94772.38;;;14.35;69.36
55466;BME280;41329;41.594;23.810;2024-02-26T10:14:08;94769.97;;;14.37;67.84
55466;BME280;41329;41.594;23.810;2024-02-26T10:16:34;94752.50;;;14.33;66.54
55466;BME280;41329;41.594;23.810;2024-02-26T10:19:00;94771.81;;;14.54;66.63
55466;BME280;41329;41.594;23.810;2024-02-26T10:21:26;94773.06;;;14.49;64.77
55466;BME280;41329;41.594;23.810;2024-02-26T10:23:52;94759.88;;;14.53;65.40
55466;BME280;41329;41.594;23.810;2024-02-26T10:26:17;94753.59;;;14.46;65.21
55466;BME280;41329;41.594;23.810;2024-02-26T10:28:44;94767.41;;;14.56;65.01
55466;BME280;41329;41.594;23.810;2024-02-26T10:31:10;94762.25;;;14.55;64.95
55466;BME280;41329;41.594;23.810;2024-02-26T10:33:37;94753.97;;;14.44;64.14
55466;BME280;41329;41.594;23.810;2024-02-26T10:36:06;94771.84;;;14.47;66.04
55466;BME280;41329;41.594;23.810;2024-02-26T10:38:33;94766.72;;;14.45;66.68
55466;BME280;41329;41.594;23.810;2024-02-26T10:40:59;94761.53;;;14.47;66.57
55466;BME280;41329;41.594;23.810;2024-02-26T10:43:27;94755.47;;;14.59;66.85
55466;BME280;41329;41.594;23.810;2024-02-26T10:45:55;94734.50;;;14.44;67.18
55466;BME280;41329;41.594;23.810;2024-02-26T10:48:21;94753.09;;;14.58;66.07
55466;BME280;41329;41.594;23.810;2024-02-26T10:50:47;94749.75;;;14.73;65.17
55466;BME280;41329;41.594;23.810;2024-02-26T10:53:16;94754.59;;;14.66;65.86
55466;BME280;41329;41.594;23.810;2024-02-26T10:55:48;94742.00;;;14.54;65.08
55466;BME280;41329;41.594;23.810;2024-02-26T10:58:14;94746.31;;;14.59;64.45
55466;BME280;41329;41.594;23.810;2024-02-26T11:00:40;94745.03;;;14.70;63.96
55466;BME280;41329;41.594;23.810;2024-02-26T11:03:06;94746.50;;;14.82;63.77
55466;BME280;41329;41.594;23.810;2024-02-26T11:05:35;94742.47;;;14.86;62.87
55466;BME280;41329;41.594;23.810;2024-02-26T11:08:02;94740.41;;;14.94;63.84
55466;BME280;41329;41.594;23.810;2024-02-26T11:10:29;94741.50;;;15.03;64.47
55466;BME280;41329;41.594;23.810;2024-02-26T11:12:56;94745.50;;;15.02;63.96
55466;BME280;41329;41.594;23.810;2024-02-26T11:15:23;94728.19;;;14.84;63.09
55466;BME280;41329;41.594;23.810;2024-02-26T11:17:52;94745.50;;;15.02;62.87
55466;BME280;41329;41.594;23.810;2024-02-26T11:20:19;94719.59;;;15.05;62.57
55466;BME280;41329;41.594;23.810;2024-02-26T11:22:45;94741.66;;;15.26;62.26
55466;BME280;41329;41.594;23.810;2024-02-26T11:25:10;94724.63;;;15.17;59.52
55466;BME280;41329;41.594;23.810;2024-02-26T11:27:43;94730.81;;;15.35;60.28
55466;BME280;41329;41.594;23.810;2024-02-26T11:30:10;94727.56;;;15.40;60.10
55466;BME280;41329;41.594;23.810;2024-02-26T11:32:37;94710.84;;;15.40;60.22
55466;BME280;41329;41.594;23.810;2024-02-26T11:35:05;94731.34;;;15.57;60.04
55466;BME280;41329;41.594;23.810;2024-02-26T11:37:31;94730.13;;;15.58;59.69
55466;BME280;41329;41.594;23.810;2024-02-26T11:39:59;94716.25;;;15.54;58.30
55466;BME280;41329;41.594;23.810;2024-02-26T11:42:25;94731.97;;;15.71;58.07
55466;BME280;41329;41.594;23.810;2024-02-26T11:44:51;94740.22;;;15.78;58.46
55466;BME280;41329;41.594;23.810;2024-02-26T11:47:20;94715.72;;;15.63;58.01
55466;BME280;41329;41.594;23.810;2024-02-26T11:49:46;94732.22;;;15.80;56.92
55466;BME280;41329;41.594;23.810;2024-02-26T11:52:13;94727.88;;;15.79;54.43
55466;BME280;41329;41.594;23.810;2024-02-26T11:57:25;94719.59;;;15.72;53.08
55466;BME280;41329;41.594;23.810;2024-02-26T11:59:52;94703.41;;;15.60;52.96
55466;BME280;41329;41.594;23.810;2024-02-26T12:02:39;94716.00;;;15.72;53.35
55466;BME280;41329;41.594;23.810;2024-02-26T12:05:09;94720.75;;;15.75;53.66
55466;BME280;41329;41.594;23.810;2024-02-26T12:07:39;94698.59;;;15.64;52.41
55466;BME280;41329;41.594;23.810;2024-02-26T12:10:27;94693.06;;;15.61;52.95
55466;BME280;41329;41.594;23.810;2024-02-26T12:13:05;94700.97;;;15.62;52.77
55466;BME280;41329;41.594;23.810;2024-02-26T12:15:32;94699.19;;;15.79;54.18
55466;BME280;41329;41.594;23.810;2024-02-26T12:18:01;94699.38;;;15.91;54.13
55466;BME280;41329;41.594;23.810;2024-02-26T12:20:27;94690.97;;;15.95;52.87
55466;BME280;41329;41.594;23.810;2024-02-26T12:22:53;94698.34;;;15.82;53.10
55466;BME280;41329;41.594;23.810;2024-02-26T12:25:25;94691.16;;;15.81;51.76
55466;BME280;41329;41.594;23.810;2024-02-26T12:27:52;94693.53;;;15.82;52.48
55466;BME280;41329;41.594;23.810;2024-02-26T12:30:18;94699.13;;;15.82;53.19
55466;BME280;41329;41.594;23.810;2024-02-26T12:32:45;94690.56;;;15.66;52.50
55466;BME280;41329;41.594;23.810;2024-02-26T12:35:10;94693.81;;;15.31;49.21
55466;BME280;41329;41.594;23.810;2024-02-26T12:37:36;94682.38;;;15.22;51.56
55466;BME280;41329;41.594;23.810;2024-02-26T12:40:05;94689.44;;;15.30;51.92
55466;BME280;41329;41.594;23.810;2024-02-26T12:42:32;94691.91;;;15.25;51.70
55466;BME280;41329;41.594;23.810;2024-02-26T12:45:07;94669.91;;;15.00;47.29
55466;BME280;41329;41.594;23.810;2024-02-26T12:47:40;94681.34;;;15.09;48.19
55466;BME280;41329;41.594;23.810;2024-02-26T12:50:07;94693.38;;;14.99;46.99
55466;BME280;41329;41.594;23.810;2024-02-26T12:52:34;94691.44;;;14.96;47.67